createdAt,value
2019-01-24T00:00:44.026Z,112.90
2019-01-24T00:01:33.342Z,118.40
2019-01-24T00:02:44.375Z,120.60
2019-01-24T00:03:32.387Z,119.20
2019-01-24T00:04:33.382Z,119.00
2019-01-24T00:05:30.442Z,120.50
2019-01-24T00:06:30.873Z,117.70
2019-01-24T00:07:30.831Z,128.90
2019-01-24T00:08:31.373Z,121.60
2019-01-24T00:09:31.321Z,121.00
2019-01-24T00:10:31.877Z,117.70
2019-01-24T00:11:33.874Z,120.50
2019-01-24T00:12:30.835Z,129.40
2019-01-24T00:13:35.238Z,120.90
2019-01-24T00:14:32.326Z,126.40
2019-01-24T00:15:53.333Z,122.00
2019-01-24T00:16:32.376Z,127.10
2019-01-24T00:17:33.833Z,126.00
2019-01-24T00:18:34.330Z,126.70
2019-01-24T00:19:33.831Z,126.30
2019-01-24T00:20:31.421Z,122.90
2019-01-24T00:21:38.390Z,128.50
2019-01-24T00:22:32.834Z,127.60
2019-01-24T00:23:49.366Z,130.00
2019-01-24T00:24:47.896Z,127.90
2019-01-24T00:25:35.828Z,123.10
2019-01-24T00:26:36.528Z,131.10
2019-01-24T00:27:34.376Z,127.10
2019-01-24T00:28:34.376Z,129.50
2019-01-24T00:29:48.874Z,122.60
2019-01-24T00:30:33.058Z,130.20
2019-01-24T00:31:34.329Z,126.50
2019-01-24T00:32:33.424Z,122.40
2019-01-24T00:33:35.328Z,129.30
2019-01-24T00:34:41.907Z,130.70
2019-01-24T00:35:41.904Z,129.10
2019-01-24T00:36:35.910Z,128.70
2019-01-24T00:37:57.186Z,124.80
2019-01-24T00:38:36.507Z,127.90
2019-01-24T00:39:34.687Z,123.10
2019-01-24T00:40:36.372Z,127.40
2019-01-24T00:41:40.820Z,129.30
2019-01-24T00:42:36.168Z,127.70
2019-01-24T00:43:35.370Z,129.10
2019-01-24T00:44:36.363Z,121.40
2019-01-24T00:45:35.714Z,121.60
2019-01-24T00:46:44.038Z,123.70
2019-01-24T00:47:36.672Z,129.40
2019-01-24T00:48:43.877Z,125.00
2019-01-24T00:49:47.112Z,127.20
2019-01-24T00:50:36.590Z,127.90
2019-01-24T00:51:52.369Z,126.80
2019-01-24T00:52:40.372Z,121.30
2019-01-24T00:53:40.875Z,125.30
2019-01-24T00:54:37.080Z,126.90
2019-01-24T00:55:44.873Z,132.40
2019-01-24T00:56:39.377Z,130.90
2019-01-24T00:57:39.377Z,122.60
2019-01-24T00:58:37.697Z,128.40
2019-01-24T00:59:41.327Z,127.70
2019-01-24T01:00:39.884Z,129.80
2019-01-24T01:01:39.216Z,124.70
2019-01-24T01:02:41.486Z,127.20
2019-01-24T01:03:39.683Z,125.50
2019-01-24T01:04:40.377Z,133.50
2019-01-24T01:05:40.876Z,121.50
2019-01-24T01:06:40.107Z,127.80
2019-01-24T01:07:40.900Z,120.00
2019-01-24T01:08:39.481Z,122.80
2019-01-24T01:09:39.545Z,121.50
2019-01-24T01:10:41.372Z,123.10
2019-01-24T01:11:43.417Z,120.10
2019-01-24T01:12:42.877Z,127.20
2019-01-24T01:13:41.869Z,123.70
2019-01-24T01:14:40.327Z,125.40
2019-01-24T01:15:42.341Z,120.00
2019-01-24T01:16:44.385Z,120.30
2019-01-24T01:17:42.921Z,123.50
2019-01-24T01:18:41.054Z,119.00
2019-01-24T01:19:44.825Z,122.00
2019-01-24T01:20:43.380Z,117.00
2019-01-24T01:21:43.574Z,127.30
2019-01-24T01:22:43.334Z,125.00
2019-01-24T01:23:41.931Z,121.00
2019-01-24T01:25:06.905Z,121.80
2019-01-24T01:25:46.841Z,125.60
2019-01-24T01:26:44.363Z,121.90
2019-01-24T01:27:45.825Z,114.50
2019-01-24T01:28:42.939Z,115.80
2019-01-24T01:29:45.324Z,122.80
2019-01-24T01:30:46.084Z,119.90
2019-01-24T01:31:58.871Z,119.40
2019-01-24T01:32:43.435Z,118.40
2019-01-24T01:33:45.359Z,104.40
2019-01-24T01:34:44.848Z,118.90
2019-01-24T01:35:48.862Z,120.70
2019-01-24T01:36:45.904Z,117.10
2019-01-24T01:37:49.327Z,120.90
2019-01-24T01:39:00.407Z,116.40
2019-01-24T01:39:46.603Z,115.40
2019-01-24T01:40:46.327Z,115.40
2019-01-24T01:41:46.857Z,109.70
2019-01-24T01:42:45.069Z,122.90
2019-01-24T01:44:08.235Z,120.00
2019-01-24T01:44:48.834Z,121.20
2019-01-24T01:46:01.376Z,116.40
2019-01-24T01:46:47.378Z,119.50
2019-01-24T01:48:09.855Z,120.60
2019-01-24T01:48:46.822Z,119.50
2019-01-24T01:49:50.105Z,116.00
2019-01-24T01:50:48.332Z,119.70
2019-01-24T01:51:49.823Z,115.20
2019-01-24T01:52:50.381Z,112.00
2019-01-24T01:54:09.373Z,116.10
2019-01-24T01:54:48.881Z,120.90
2019-01-24T01:55:48.870Z,115.90
2019-01-24T01:56:48.871Z,121.40
2019-01-24T01:57:48.893Z,108.20
2019-01-24T01:58:50.371Z,118.50
2019-01-24T01:59:49.327Z,120.80
2019-01-24T02:00:55.812Z,111.30
2019-01-24T02:01:49.834Z,117.50
2019-01-24T02:02:48.856Z,120.30
2019-01-24T02:03:51.825Z,119.50
2019-01-24T02:04:50.368Z,119.20
2019-01-24T02:06:13.369Z,117.10
2019-01-24T02:07:04.413Z,116.30
2019-01-24T02:07:56.875Z,112.70
2019-01-24T02:08:49.835Z,113.00
2019-01-24T02:09:54.372Z,115.70
2019-01-24T02:10:53.371Z,116.30
2019-01-24T02:11:53.375Z,119.30
2019-01-24T02:12:50.161Z,115.60
2019-01-24T02:13:51.912Z,116.90
2019-01-24T02:14:50.123Z,119.00
2019-01-24T02:15:52.835Z,119.30
2019-01-24T02:17:06.409Z,115.30
2019-01-24T02:17:52.382Z,115.60
2019-01-24T02:18:50.701Z,111.00
2019-01-24T02:19:53.850Z,120.60
2019-01-24T02:20:51.056Z,114.70
2019-01-24T02:21:53.192Z,112.20
2019-01-24T02:22:53.442Z,118.70
2019-01-24T02:23:51.875Z,117.00
2019-01-24T02:24:54.460Z,123.90
2019-01-24T02:25:55.382Z,119.00
2019-01-24T02:26:57.821Z,119.50
2019-01-24T02:27:58.875Z,117.90
2019-01-24T02:28:52.329Z,121.90
2019-01-24T02:29:56.352Z,117.30
2019-01-24T02:30:54.369Z,120.00
2019-01-24T02:31:52.852Z,118.70
2019-01-24T02:32:55.334Z,126.70
2019-01-24T02:33:54.055Z,121.10
2019-01-24T02:35:08.868Z,124.60
2019-01-24T02:35:56.157Z,122.10
2019-01-24T02:36:53.688Z,115.30
2019-01-24T02:37:55.252Z,119.20
2019-01-24T02:39:01.878Z,111.50
2019-01-24T02:39:57.878Z,107.60
2019-01-24T02:40:54.321Z,115.80
2019-01-24T02:41:56.393Z,114.50
2019-01-24T02:42:56.384Z,117.40
2019-01-24T02:43:54.843Z,110.80
2019-01-24T02:44:57.554Z,115.10
2019-01-24T02:45:58.868Z,110.50
2019-01-24T02:47:19.868Z,110.00
2019-01-24T02:47:55.413Z,116.20
2019-01-24T02:48:55.609Z,112.40
2019-01-24T02:49:56.804Z,106.60
2019-01-24T02:50:56.000Z,107.50
2019-01-24T02:51:59.867Z,105.90
2019-01-24T02:53:03.873Z,108.90
2019-01-24T02:53:57.353Z,104.00
2019-01-24T02:54:57.582Z,100.20
2019-01-24T02:55:57.355Z,100.30
2019-01-24T02:57:00.381Z,102.10
2019-01-24T02:57:59.867Z,95.00
2019-01-24T02:58:58.914Z,97.20
2019-01-24T02:59:58.876Z,95.30
2019-01-24T03:00:59.550Z,97.20
2019-01-24T03:02:05.382Z,89.80
2019-01-24T03:02:59.357Z,93.30
2019-01-24T03:04:01.378Z,94.40
2019-01-24T03:05:01.890Z,92.50
2019-01-24T03:06:02.867Z,96.90
2019-01-24T03:06:58.259Z,93.20
2019-01-24T03:07:58.343Z,97.90
2019-01-24T03:08:58.548Z,99.90
2019-01-24T03:09:59.814Z,98.20
2019-01-24T03:11:00.368Z,97.00
2019-01-24T03:12:00.871Z,96.30
2019-01-24T03:13:00.868Z,96.80
2019-01-24T03:14:02.882Z,97.00
2019-01-24T03:15:03.366Z,93.90
2019-01-24T03:16:01.399Z,93.40
2019-01-24T03:17:08.851Z,93.40
2019-01-24T03:18:15.867Z,91.00
2019-01-24T03:19:07.820Z,93.50
2019-01-24T03:20:01.866Z,98.90
2019-01-24T03:21:02.654Z,94.70
2019-01-24T03:22:02.513Z,93.10
2019-01-24T03:24:32.459Z,98.50
2019-01-24T03:25:32.526Z,96.80
2019-01-24T03:26:40.432Z,95.90
2019-01-24T03:27:34.675Z,97.00
2019-01-24T03:28:40.718Z,97.20
2019-01-24T03:29:33.185Z,95.20
2019-01-24T03:30:37.220Z,96.90
2019-01-24T03:31:37.218Z,94.40
2019-01-24T03:32:34.569Z,85.30
2019-01-24T03:33:33.645Z,93.20
2019-01-24T03:34:40.997Z,97.80
2019-01-24T03:35:34.682Z,94.70
2019-01-24T03:36:39.673Z,95.90
2019-01-24T03:37:36.001Z,95.00
2019-01-24T03:38:50.652Z,90.80
2019-01-24T03:39:42.682Z,97.50
2019-01-24T03:40:35.177Z,94.30
2019-01-24T03:41:38.727Z,94.00
2019-01-24T03:42:34.921Z,98.80
2019-01-24T03:43:36.762Z,95.60
2019-01-24T03:44:36.675Z,92.20
2019-01-24T03:45:37.512Z,91.40
2019-01-24T03:46:38.199Z,96.60
2019-01-24T03:47:39.723Z,95.00
2019-01-24T03:48:38.537Z,94.90
2019-01-24T03:49:37.679Z,94.20
2019-01-24T03:50:36.265Z,92.10
2019-01-24T03:51:37.202Z,93.80
2019-01-24T03:52:52.283Z,92.40
2019-01-24T03:53:38.721Z,89.80
2019-01-24T03:54:38.720Z,96.40
2019-01-24T03:55:37.175Z,92.80
2019-01-24T03:56:37.398Z,99.10
2019-01-24T03:57:41.220Z,93.90
2019-01-24T03:58:40.706Z,88.50
2019-01-24T03:59:38.804Z,95.50
2019-01-24T04:00:38.010Z,91.00
2019-01-24T04:01:39.718Z,94.70
2019-01-24T04:02:38.409Z,91.00
2019-01-24T04:04:07.629Z,93.80
2019-01-24T04:04:46.722Z,91.00
2019-01-24T04:05:38.914Z,93.20
2019-01-24T04:06:47.696Z,91.60
2019-01-24T04:07:47.218Z,89.10
2019-01-24T04:08:39.415Z,89.70
2019-01-24T04:09:47.228Z,92.90
2019-01-24T04:10:55.720Z,93.60
2019-01-24T04:11:42.673Z,93.20
2019-01-24T04:12:41.728Z,91.10
2019-01-24T04:14:09.688Z,96.60
2019-01-24T04:14:57.192Z,93.00
2019-01-24T04:15:43.673Z,97.90
2019-01-24T04:16:42.173Z,92.40
2019-01-24T04:17:41.500Z,94.80
2019-01-24T04:18:42.880Z,96.50
2019-01-24T04:19:42.722Z,92.20
2019-01-24T04:20:42.196Z,93.20
2019-01-24T04:21:47.348Z,91.40
2019-01-24T04:22:45.243Z,95.70
2019-01-24T04:23:44.194Z,95.10
2019-01-24T04:24:41.903Z,96.40
2019-01-24T04:26:06.725Z,89.50
2019-01-24T04:26:44.171Z,90.70
2019-01-24T04:27:44.755Z,97.00
2019-01-24T04:28:46.214Z,92.20
2019-01-24T04:29:44.727Z,97.40
2019-01-24T04:30:46.671Z,95.30
2019-01-24T04:31:44.564Z,98.50
2019-01-24T04:32:46.702Z,91.70
2019-01-24T04:33:50.927Z,95.30
2019-01-24T04:34:45.222Z,97.30
2019-01-24T04:35:44.555Z,97.50
2019-01-24T04:36:43.760Z,98.90
2019-01-24T04:37:45.689Z,98.10
2019-01-24T04:38:46.748Z,94.90
2019-01-24T04:39:49.245Z,96.70
2019-01-24T04:40:48.221Z,97.60
2019-01-24T04:41:45.672Z,98.60
2019-01-24T04:42:47.760Z,99.00
2019-01-24T04:43:45.058Z,95.60
2019-01-24T04:44:51.722Z,99.90
2019-01-24T04:45:47.221Z,101.30
2019-01-24T04:47:01.462Z,103.00
2019-01-24T04:47:52.224Z,94.90
2019-01-24T04:48:47.719Z,100.10
2019-01-24T04:49:45.923Z,94.10
2019-01-24T04:50:46.027Z,104.70
2019-01-24T04:51:47.680Z,100.20
2019-01-24T04:52:49.172Z,98.40
2019-01-24T04:53:48.216Z,95.80
2019-01-24T04:54:46.541Z,98.60
2019-01-24T04:55:47.290Z,97.70
2019-01-24T04:56:53.670Z,98.00
2019-01-24T04:57:49.676Z,100.30
2019-01-24T04:58:54.717Z,106.90
2019-01-24T04:59:50.206Z,103.50
2019-01-24T05:00:50.267Z,102.00
2019-01-24T05:01:48.826Z,111.70
2019-01-24T05:02:51.715Z,103.30
2019-01-24T05:03:47.910Z,103.20
2019-01-24T05:04:54.016Z,104.90
2019-01-24T05:05:49.704Z,100.20
2019-01-24T05:06:52.219Z,106.90
2019-01-24T05:07:52.170Z,108.70
2019-01-24T05:08:51.719Z,106.10
2019-01-24T05:09:50.714Z,103.40
2019-01-24T05:10:49.069Z,115.10
2019-01-24T05:12:04.715Z,108.50
2019-01-24T05:12:51.503Z,112.80
2019-01-24T05:13:52.431Z,106.50
2019-01-24T05:14:51.218Z,116.30
2019-01-24T05:15:49.663Z,113.60
2019-01-24T05:17:00.911Z,102.70
2019-01-24T05:17:53.716Z,102.10
2019-01-24T05:18:51.174Z,106.60
2019-01-24T05:19:52.474Z,104.20
2019-01-24T05:20:50.637Z,107.20
2019-01-24T05:21:53.199Z,107.80
2019-01-24T05:22:51.086Z,101.90
2019-01-24T05:23:51.289Z,107.30
2019-01-24T05:24:52.386Z,99.80
2019-01-24T05:26:14.214Z,103.50
2019-01-24T05:26:55.726Z,98.70
2019-01-24T05:27:53.208Z,100.70
2019-01-24T05:28:52.045Z,106.20
2019-01-24T05:29:54.260Z,106.20
2019-01-24T05:30:54.671Z,108.40
2019-01-24T05:31:52.638Z,105.20
2019-01-24T05:32:55.371Z,102.20
2019-01-24T05:33:55.538Z,100.60
2019-01-24T05:34:53.252Z,104.00
2019-01-24T05:35:55.223Z,102.50
2019-01-24T05:36:56.177Z,98.10
2019-01-24T05:38:23.010Z,106.00
2019-01-24T05:38:55.668Z,102.60
2019-01-24T05:39:54.135Z,98.00
2019-01-24T05:40:59.175Z,95.10
2019-01-24T05:41:56.163Z,96.20
2019-01-24T05:42:59.178Z,96.10
2019-01-24T05:43:56.714Z,99.80
2019-01-24T05:44:56.731Z,98.00
2019-01-24T05:45:56.752Z,98.90
2019-01-24T05:46:57.988Z,101.90
2019-01-24T05:48:12.429Z,102.30
2019-01-24T05:48:56.623Z,103.30
2019-01-24T05:49:56.692Z,99.00
2019-01-24T05:50:55.915Z,96.80
2019-01-24T05:51:56.788Z,97.10
2019-01-24T05:53:00.995Z,95.60
2019-01-24T05:53:56.428Z,96.80
2019-01-24T05:54:58.249Z,98.50
2019-01-24T05:56:00.161Z,94.70
2019-01-24T05:56:58.716Z,97.60
2019-01-24T05:57:57.855Z,96.70
2019-01-24T05:58:57.197Z,98.50
2019-01-24T05:59:59.243Z,97.20
2019-01-24T06:00:59.212Z,97.20
2019-01-24T06:02:00.167Z,90.00
2019-01-24T06:03:01.169Z,92.10
2019-01-24T06:04:01.019Z,97.70
2019-01-24T06:05:19.716Z,92.70
2019-01-24T06:05:58.343Z,90.50
2019-01-24T06:07:19.536Z,92.30
2019-01-24T06:07:58.718Z,90.10
2019-01-24T06:09:00.210Z,96.00
2019-01-24T06:10:00.758Z,94.50
2019-01-24T06:11:15.229Z,90.00
2019-01-24T06:12:01.669Z,96.10
2019-01-24T06:13:00.193Z,95.50
2019-01-24T06:14:01.219Z,101.90
2019-01-24T06:15:00.687Z,100.10
2019-01-24T06:16:01.731Z,103.40
2019-01-24T06:17:00.066Z,106.80
2019-01-24T06:18:02.439Z,100.80
2019-01-24T06:19:04.227Z,103.50
2019-01-24T06:20:00.577Z,97.70
2019-01-24T06:21:00.741Z,94.20
2019-01-24T06:22:02.706Z,100.80
2019-01-24T06:23:04.661Z,102.60
2019-01-24T06:24:01.239Z,96.50
2019-01-24T06:25:05.211Z,96.50
2019-01-24T06:26:03.221Z,96.70
2019-01-24T06:27:01.680Z,101.70
2019-01-24T06:28:03.714Z,97.50
2019-01-24T06:29:03.886Z,98.90
2019-01-24T06:30:03.787Z,98.30
2019-01-24T06:31:04.215Z,98.20
2019-01-24T06:32:04.539Z,97.40
2019-01-24T06:33:11.659Z,101.00
2019-01-24T06:34:04.715Z,103.50
2019-01-24T06:35:03.698Z,102.60
2019-01-24T06:36:06.710Z,102.30
2019-01-24T06:37:05.232Z,102.30
2019-01-24T06:38:07.218Z,98.60
2019-01-24T06:39:05.667Z,104.00
2019-01-24T06:40:04.185Z,105.20
2019-01-24T06:41:04.500Z,104.10
2019-01-24T06:42:06.699Z,98.10
2019-01-24T06:43:12.603Z,99.30
2019-01-24T06:44:04.725Z,100.30
2019-01-24T06:45:06.760Z,103.10
2019-01-24T06:46:09.143Z,101.40
2019-01-24T06:47:05.162Z,102.70
2019-01-24T06:48:07.235Z,106.60
2019-01-24T06:49:15.164Z,103.60
2019-01-24T06:50:28.710Z,105.70
2019-01-24T06:51:08.678Z,104.90
2019-01-24T06:52:07.712Z,98.60
2019-01-24T06:53:11.682Z,99.40
2019-01-24T06:54:10.213Z,103.40
2019-01-24T06:55:10.213Z,98.50
2019-01-24T06:56:06.654Z,101.50
2019-01-24T06:57:10.716Z,103.60
2019-01-24T06:58:14.717Z,100.60
2019-01-24T06:59:14.709Z,100.10
2019-01-24T07:00:07.347Z,99.20
2019-01-24T07:01:10.674Z,103.10
2019-01-24T07:02:09.769Z,101.00
2019-01-24T07:03:11.709Z,96.70
2019-01-24T07:04:08.023Z,98.80
2019-01-24T07:05:16.031Z,99.90
2019-01-24T07:06:10.220Z,102.00
2019-01-24T07:07:12.215Z,97.40
2019-01-24T07:08:13.117Z,97.20
2019-01-24T07:10:40.701Z,96.00
2019-01-24T07:11:45.051Z,98.00
2019-01-24T07:12:43.888Z,100.40
2019-01-24T07:13:43.529Z,103.50
2019-01-24T07:14:42.944Z,92.70
2019-01-24T07:15:41.802Z,132.00
2019-01-24T07:16:43.401Z,95.10
2019-01-24T07:17:44.068Z,103.40
2019-01-24T07:18:43.951Z,92.50
2019-01-24T07:19:44.973Z,92.50
2019-01-24T07:20:44.949Z,94.70
2019-01-24T07:21:42.537Z,93.40
2019-01-24T07:22:44.442Z,95.60
2019-01-24T07:23:46.772Z,94.80
2019-01-24T07:25:06.975Z,99.40
2019-01-24T07:25:43.897Z,98.40
2019-01-24T07:26:45.157Z,94.20
2019-01-24T07:27:43.394Z,98.50
2019-01-24T07:28:45.133Z,95.40
2019-01-24T07:29:45.687Z,100.70
2019-01-24T07:30:46.901Z,96.90
2019-01-24T07:31:44.041Z,96.10
2019-01-24T07:32:44.276Z,99.50
2019-01-24T07:33:44.549Z,96.70
2019-01-24T07:34:44.583Z,102.20
2019-01-24T07:35:51.681Z,103.90
2019-01-24T07:36:46.624Z,93.80
2019-01-24T07:37:52.320Z,93.00
2019-01-24T07:38:50.612Z,91.10
2019-01-24T07:39:46.686Z,96.70
2019-01-24T07:40:47.659Z,96.50
2019-01-24T07:41:47.664Z,89.90
2019-01-24T07:42:46.196Z,94.00
2019-01-24T07:43:48.378Z,91.60
2019-01-24T07:44:48.229Z,88.90
2019-01-24T07:45:50.375Z,92.70
2019-01-24T07:46:46.956Z,88.80
2019-01-24T07:47:47.760Z,93.00
2019-01-24T07:48:50.769Z,99.40
2019-01-24T07:49:50.596Z,89.00
2019-01-24T07:50:50.324Z,93.60
2019-01-24T07:51:49.065Z,95.20
2019-01-24T07:52:52.396Z,93.60
2019-01-24T07:54:10.475Z,97.40
2019-01-24T07:54:49.448Z,96.50
2019-01-24T07:55:47.903Z,94.30
2019-01-24T07:56:49.968Z,99.20
2019-01-24T07:57:49.938Z,100.90
2019-01-24T07:59:10.506Z,99.50
2019-01-24T07:59:50.437Z,94.40
2019-01-24T08:00:53.030Z,96.50
2019-01-24T08:01:50.112Z,100.90
2019-01-24T08:02:51.344Z,98.80
2019-01-24T08:03:52.944Z,97.10
2019-01-24T08:04:49.527Z,93.80
2019-01-24T08:05:51.437Z,94.10
2019-01-24T08:06:53.444Z,95.20
2019-01-24T08:07:55.416Z,91.20
2019-01-24T08:08:51.943Z,99.80
2019-01-24T08:09:51.892Z,97.70
2019-01-24T08:10:52.931Z,93.60
2019-01-24T08:11:52.732Z,92.70
2019-01-24T08:12:50.866Z,96.50
2019-01-24T08:13:51.102Z,92.80
2019-01-24T08:15:13.254Z,91.70
2019-01-24T08:15:52.432Z,90.40
2019-01-24T08:16:54.892Z,97.70
2019-01-24T08:17:51.868Z,97.80
2019-01-24T08:18:53.109Z,90.50
2019-01-24T08:19:54.221Z,88.30
2019-01-24T08:20:56.173Z,92.40
2019-01-24T08:21:57.283Z,89.90
2019-01-24T08:22:52.625Z,89.30
2019-01-24T08:23:59.482Z,88.60
2019-01-24T08:24:55.947Z,90.90
2019-01-24T08:25:53.545Z,97.40
2019-01-24T08:26:55.441Z,91.80
2019-01-24T08:27:55.814Z,90.60
2019-01-24T08:28:53.850Z,91.80
2019-01-24T08:30:00.971Z,94.70
2019-01-24T08:30:54.160Z,91.80
2019-01-24T08:31:55.934Z,93.80
2019-01-24T08:32:56.562Z,96.80
2019-01-24T08:33:54.646Z,98.60
2019-01-24T08:34:55.844Z,95.50
2019-01-24T08:35:56.949Z,93.70
2019-01-24T08:36:55.150Z,98.20
2019-01-24T08:38:11.919Z,102.90
2019-01-24T08:38:57.405Z,96.90
2019-01-24T08:40:04.437Z,101.20
2019-01-24T08:41:11.440Z,102.50
2019-01-24T08:41:56.409Z,97.40
2019-01-24T08:42:57.941Z,94.50
2019-01-24T08:43:57.988Z,96.60
2019-01-24T08:44:57.962Z,95.70
2019-01-24T08:45:57.938Z,97.60
2019-01-24T08:46:58.438Z,96.90
2019-01-24T08:47:58.449Z,96.80
2019-01-24T08:48:58.897Z,98.70
2019-01-24T08:49:58.390Z,101.10
2019-01-24T08:50:59.885Z,93.50
2019-01-24T08:51:57.354Z,97.50
2019-01-24T08:53:00.935Z,96.80
2019-01-24T08:53:57.721Z,96.30
2019-01-24T08:55:05.396Z,98.00
2019-01-24T08:56:05.889Z,97.80
2019-01-24T08:57:04.892Z,93.70
2019-01-24T08:58:01.939Z,97.60
2019-01-24T08:58:58.377Z,99.90
2019-01-24T09:00:01.910Z,95.50
2019-01-24T09:01:00.448Z,98.10
2019-01-24T09:02:00.387Z,97.40
2019-01-24T09:03:05.971Z,101.00
2019-01-24T09:03:59.301Z,122.50
2019-01-24T09:05:16.206Z,105.10
2019-01-24T09:05:59.664Z,100.20
2019-01-24T09:07:01.435Z,106.70
2019-01-24T09:08:00.094Z,98.20
2019-01-24T09:09:00.319Z,96.40
2019-01-24T09:10:00.403Z,98.40
2019-01-24T09:11:16.437Z,100.90
2019-01-24T09:12:07.439Z,100.50
2019-01-24T09:13:07.444Z,109.70
2019-01-24T09:14:01.889Z,106.70
2019-01-24T09:15:04.393Z,103.10
2019-01-24T09:16:02.938Z,95.50
2019-01-24T09:17:01.506Z,91.70
2019-01-24T09:18:01.712Z,104.00
2019-01-24T09:19:05.436Z,117.80
2019-01-24T09:20:06.719Z,113.60
2019-01-24T09:21:02.351Z,100.70
2019-01-24T09:22:04.434Z,105.70
2019-01-24T09:23:03.385Z,95.40
2019-01-24T09:24:04.934Z,96.70
2019-01-24T09:25:10.941Z,99.70
2019-01-24T09:26:06.966Z,91.20
2019-01-24T09:27:04.444Z,91.20
2019-01-24T09:28:04.428Z,94.90
2019-01-24T09:29:05.892Z,92.10
2019-01-24T09:30:05.946Z,93.60
2019-01-24T09:31:05.898Z,97.70
2019-01-24T09:32:06.494Z,92.10
2019-01-24T09:33:09.493Z,90.00
2019-01-24T09:34:06.438Z,90.70
2019-01-24T09:35:06.888Z,90.60
2019-01-24T09:36:07.034Z,93.80
2019-01-24T09:37:06.388Z,87.90
2019-01-24T09:38:07.917Z,90.80
2019-01-24T09:39:30.454Z,93.70
2019-01-24T09:40:10.917Z,91.90
2019-01-24T09:41:06.781Z,94.20
2019-01-24T09:42:06.872Z,93.60
2019-01-24T09:43:08.955Z,91.50
2019-01-24T09:44:07.939Z,95.90
2019-01-24T09:45:07.366Z,93.80
2019-01-24T09:46:14.507Z,91.90
2019-01-24T09:47:07.711Z,97.50
2019-01-24T09:48:09.455Z,103.40
2019-01-24T09:49:10.934Z,91.50
2019-01-24T09:50:08.956Z,96.70
2019-01-24T09:51:07.469Z,100.00
2019-01-24T09:52:11.548Z,91.60
2019-01-24T09:53:09.916Z,90.00
2019-01-24T09:54:07.847Z,87.00
2019-01-24T09:55:11.971Z,93.20
2019-01-24T09:56:09.181Z,95.70
2019-01-24T09:57:25.427Z,92.70
2019-01-24T09:58:09.629Z,85.70
2019-01-24T09:59:10.449Z,85.90
2019-01-24T10:00:08.904Z,86.40
2019-01-24T10:01:13.351Z,87.90
2019-01-24T10:02:10.937Z,87.60
2019-01-24T10:03:10.249Z,88.70
2019-01-24T10:04:09.456Z,89.10
2019-01-24T10:05:10.000Z,90.00
2019-01-24T10:06:11.448Z,84.50
2019-01-24T10:07:11.941Z,90.30
2019-01-24T10:08:10.912Z,89.40
2019-01-24T10:09:11.920Z,85.50
2019-01-24T10:10:11.888Z,88.10
2019-01-24T10:11:39.446Z,86.00
2019-01-24T10:12:13.917Z,85.60
2019-01-24T10:13:11.766Z,90.70
2019-01-24T10:14:14.938Z,86.50
2019-01-24T10:15:19.937Z,90.30
2019-01-24T10:16:11.268Z,91.80
2019-01-24T10:17:15.433Z,90.70
2019-01-24T10:18:21.601Z,96.80
2019-01-24T10:19:15.431Z,92.40
2019-01-24T10:20:16.709Z,89.10
2019-01-24T10:21:15.437Z,81.50
2019-01-24T10:22:12.140Z,84.20
2019-01-24T10:23:15.962Z,82.80
2019-01-24T10:24:14.436Z,88.50
2019-01-24T10:25:15.519Z,81.30
2019-01-24T10:26:14.507Z,96.60
2019-01-24T10:27:13.973Z,87.30
2019-01-24T10:28:14.935Z,80.30
2019-01-24T10:29:13.380Z,83.80
2019-01-24T10:30:17.447Z,84.50
2019-01-24T10:31:15.445Z,82.00
2019-01-24T10:32:15.938Z,81.30
2019-01-24T10:33:16.891Z,84.10
2019-01-24T10:34:17.932Z,82.20
2019-01-24T10:35:22.906Z,86.80
2019-01-24T10:36:19.662Z,84.60
2019-01-24T10:37:16.890Z,82.80
2019-01-24T10:38:16.944Z,82.80
2019-01-24T10:39:15.276Z,80.10
2019-01-24T10:40:15.566Z,84.40
2019-01-24T10:41:17.462Z,81.30
2019-01-24T10:42:31.440Z,81.10
2019-01-24T10:43:19.944Z,85.80
2019-01-24T10:44:16.180Z,122.10
2019-01-24T10:45:17.932Z,87.20
2019-01-24T10:46:19.938Z,206.10
2019-01-24T10:47:16.546Z,80.30
2019-01-24T10:48:16.644Z,78.40
2019-01-24T10:49:18.475Z,75.60
2019-01-24T10:50:23.938Z,79.30
2019-01-24T10:51:22.430Z,74.20
2019-01-24T10:52:18.694Z,78.80
2019-01-24T10:53:21.434Z,77.40
2019-01-24T10:54:21.385Z,77.00
2019-01-24T10:55:20.893Z,75.60
2019-01-24T10:56:21.932Z,79.10
2019-01-24T10:57:19.933Z,76.30
2019-01-24T10:58:25.933Z,77.90
2019-01-24T10:59:20.490Z,79.50
2019-01-24T11:00:20.432Z,76.80
2019-01-24T11:01:20.449Z,75.40
2019-01-24T11:02:21.982Z,70.90
2019-01-24T11:03:20.199Z,73.90
2019-01-24T11:04:19.727Z,73.30
2019-01-24T11:05:21.431Z,73.20
2019-01-24T11:06:35.441Z,76.90
2019-01-24T11:07:23.463Z,77.60
2019-01-24T11:08:35.431Z,75.20
2019-01-24T11:09:21.940Z,72.40
2019-01-24T11:10:21.938Z,73.00
2019-01-24T11:11:20.442Z,72.50
2019-01-24T11:12:22.477Z,72.10
2019-01-24T11:13:36.485Z,75.70
2019-01-24T11:14:21.403Z,69.30
2019-01-24T11:15:21.011Z,73.60
2019-01-24T11:16:22.945Z,73.30
2019-01-24T11:17:24.567Z,75.00
2019-01-24T11:18:24.896Z,75.00
2019-01-24T11:19:27.440Z,71.00
2019-01-24T11:20:23.439Z,69.60
2019-01-24T11:21:22.035Z,75.70
2019-01-24T11:22:25.930Z,72.60
2019-01-24T11:23:25.959Z,71.50
2019-01-24T11:24:22.527Z,71.30
2019-01-24T11:25:24.437Z,74.20
2019-01-24T11:26:28.461Z,73.00
2019-01-24T11:27:24.979Z,77.00
2019-01-24T11:28:24.989Z,74.80
2019-01-24T11:29:23.934Z,74.90
2019-01-24T11:30:25.455Z,73.00
2019-01-24T11:31:23.697Z,70.60
2019-01-24T11:32:26.914Z,74.80
2019-01-24T11:33:26.394Z,71.80
2019-01-24T11:34:26.958Z,71.50
2019-01-24T11:35:24.307Z,75.00
2019-01-24T11:36:25.935Z,73.80
2019-01-24T11:37:28.455Z,73.50
2019-01-24T11:38:26.471Z,68.50
2019-01-24T11:39:26.433Z,73.60
2019-01-24T11:40:25.003Z,66.90
2019-01-24T11:41:28.931Z,68.90
2019-01-24T11:42:29.992Z,80.60
2019-01-24T11:43:28.444Z,72.50
2019-01-24T11:44:29.432Z,72.30
2019-01-24T11:45:27.380Z,72.10
2019-01-24T11:46:28.401Z,71.20
2019-01-24T11:47:26.245Z,67.00
2019-01-24T11:48:27.963Z,69.70
2019-01-24T11:49:28.434Z,72.40
2019-01-24T11:50:26.775Z,66.90
2019-01-24T11:51:28.937Z,67.50
2019-01-24T11:52:29.906Z,67.90
2019-01-24T11:53:28.945Z,68.20
2019-01-24T11:54:28.948Z,65.50
2019-01-24T11:55:27.536Z,68.60
2019-01-24T11:56:27.672Z,67.20
2019-01-24T11:57:29.455Z,65.50
2019-01-24T11:58:28.391Z,68.10
2019-01-24T11:59:35.963Z,69.40
2019-01-24T12:00:31.937Z,66.10
2019-01-24T12:01:29.645Z,69.00
2019-01-24T12:02:29.562Z,66.80
2019-01-24T12:03:51.934Z,63.20
2019-01-24T12:04:29.242Z,65.80
2019-01-24T12:05:30.969Z,67.60
2019-01-24T12:06:29.661Z,66.90
2019-01-24T12:07:31.429Z,70.60
2019-01-24T12:08:31.933Z,66.00
2019-01-24T12:09:31.146Z,67.00
2019-01-24T12:10:34.247Z,71.60
2019-01-24T12:11:32.448Z,67.20
2019-01-24T12:12:32.433Z,67.70
2019-01-24T12:13:30.859Z,68.10
2019-01-24T12:14:32.960Z,67.10
2019-01-24T12:15:37.187Z,67.70
2019-01-24T12:16:32.418Z,80.20
2019-01-24T12:17:33.467Z,67.00
2019-01-24T12:18:32.687Z,68.30
2019-01-24T12:19:33.553Z,67.90
2019-01-24T12:20:33.938Z,69.40
2019-01-24T12:21:33.933Z,72.50
2019-01-24T12:22:35.949Z,70.00
2019-01-24T12:23:32.553Z,66.40
2019-01-24T12:24:36.430Z,67.30
2019-01-24T12:25:32.914Z,67.70
2019-01-24T12:26:34.955Z,66.90
2019-01-24T12:27:33.898Z,65.70
2019-01-24T12:28:35.447Z,69.70
2019-01-24T12:29:33.665Z,66.70
2019-01-24T12:30:37.484Z,66.70
2019-01-24T12:31:34.011Z,66.30
2019-01-24T12:32:36.104Z,68.20
2019-01-24T12:33:37.934Z,69.60
2019-01-24T12:34:36.431Z,67.60
2019-01-24T12:35:34.637Z,65.90
2019-01-24T12:36:34.838Z,65.10
2019-01-24T12:37:35.052Z,66.40
2019-01-24T12:38:36.251Z,66.50
2019-01-24T12:39:37.590Z,67.70
2019-01-24T12:40:56.674Z,67.10
2019-01-24T12:41:37.432Z,66.90
2019-01-24T12:42:36.020Z,66.90
2019-01-24T12:43:38.390Z,69.70
2019-01-24T12:44:36.365Z,64.70
2019-01-24T12:45:36.585Z,66.80
2019-01-24T12:46:40.434Z,65.20
2019-01-24T12:47:37.891Z,63.10
2019-01-24T12:48:37.095Z,65.40